Time;durP1;ratioP1;P1;durP2;ratioP2;P2;SDS_P1;SDS_P2;PMS_P1;PMS_P2;Temp;Humidity;BMP_temperature;BMP_pressure;BME280_temperature;BME280_humidity;BME280_pressure;Samples;Min_cycle;Max_cycle;Signal;HPM_P1;HPM_P2
2021/04/26 00:00:06;;;;;;;85.97;30.40;;;-1.90;84.60;;;;;;5067644;28;20075;-73
2021/04/26 00:02:31;;;;;;;82.28;30.65;;;-1.90;84.30;;;;;;5055478;28;20021;-74
2021/04/26 00:04:57;;;;;;;81.43;32.85;;;-1.90;84.20;;;;;;5055049;28;20029;-74
2021/04/26 00:07:22;;;;;;;91.40;35.03;;;-1.90;84.10;;;;;;5055426;28;20053;-73
2021/04/26 00:09:48;;;;;;;99.60;35.40;;;-1.80;84.30;;;;;;5053870;28;20401;-74
2021/04/26 00:12:14;;;;;;;88.45;35.30;;;-1.80;84.70;;;;;;5053972;28;20112;-73
2021/04/26 00:14:39;;;;;;;97.63;34.83;;;-1.70;85.90;;;;;;5053716;28;20032;-75
2021/04/26 00:17:05;;;;;;;83.85;31.52;;;-1.70;86.30;;;;;;5053729;28;20041;-73
2021/04/26 00:19:31;;;;;;;89.07;34.80;;;-1.60;87.10;;;;;;5054508;28;20029;-74
2021/04/26 00:21:56;;;;;;;61.55;26.50;;;-1.60;87.00;;;;;;5054898;28;20078;-73
2021/04/26 00:24:22;;;;;;;45.00;19.20;;;-1.60;87.00;;;;;;5054649;28;20025;-74
2021/04/26 00:26:47;;;;;;;36.83;16.80;;;-1.70;89.30;;;;;;5055846;28;20485;-73
2021/04/26 00:29:13;;;;;;;38.03;17.02;;;-1.80;90.70;;;;;;5053498;28;20398;-74
2021/04/26 00:31:39;;;;;;;42.72;18.73;;;-1.80;90.70;;;;;;5054665;28;20029;-73
2021/04/26 00:34:04;;;;;;;47.08;20.95;;;-1.80;90.50;;;;;;5054953;28;20423;-74
2021/04/26 00:36:30;;;;;;;45.85;19.85;;;-1.80;90.50;;;;;;5054519;28;20021;-74
2021/04/26 00:38:56;;;;;;;43.58;19.80;;;-1.80;90.80;;;;;;5054526;28;20652;-74
2021/04/26 00:41:21;;;;;;;54.72;23.23;;;-1.80;91.00;;;;;;5054349;28;20021;-74
2021/04/26 00:43:47;;;;;;;69.28;28.85;;;-1.70;90.90;;;;;;5054098;28;20021;-73
2021/04/26 00:46:15;;;;;;;73.30;29.83;;;-1.70;90.80;;;;;;5053194;28;20032;-74
2021/04/26 00:48:41;;;;;;;76.53;29.90;;;-1.60;90.40;;;;;;5053093;28;20086;-74
2021/04/26 00:51:08;;;;;;;86.03;31.25;;;-1.70;89.70;;;;;;5054466;28;20021;-74
2021/04/26 00:53:34;;;;;;;72.43;30.95;;;-1.60;89.20;;;;;;5061857;28;20028;-74
2021/04/26 00:56:02;;;;;;;84.80;31.98;;;-1.60;89.10;;;;;;5072904;28;20013;-74
2021/04/26 00:58:28;;;;;;;84.47;31.58;;;-1.60;89.10;;;;;;5072789;28;20037;-73
2021/04/26 01:00:54;;;;;;;71.85;29.35;;;-1.50;89.20;;;;;;5072806;28;20394;-73
2021/04/26 01:03:19;;;;;;;60.97;27.13;;;-1.60;89.70;;;;;;5074013;28;20075;-73
2021/04/26 01:05:45;;;;;;;62.45;25.08;;;-1.50;90.40;;;;;;5073025;28;20024;-73
2021/04/26 01:08:11;;;;;;;59.58;22.73;;;-1.60;90.50;;;;;;5063575;28;20029;-73
2021/04/26 01:10:37;;;;;;;64.78;27.23;;;-1.60;90.40;;;;;;5053997;28;20025;-73
2021/04/26 01:13:29;;;;;;;71.45;28.25;;;-1.60;91.70;;;;;;5053928;28;20029;-73
2021/04/26 01:16:00;;;;;;;55.00;25.30;;;-1.50;91.80;;;;;;5037302;28;20079;-73
2021/04/26 01:18:57;;;;;;;59.85;25.55;;;-1.50;92.40;;;;;;5053779;28;20037;-73
2021/04/26 01:21:53;;;;;;;58.00;24.65;;;-1.50;92.90;;;;;;5044807;28;20060;-73
2021/04/26 01:24:35;;;;;;;53.65;22.13;;;-1.40;92.90;;;;;;5053664;28;20079;-73
2021/04/26 01:27:06;;;;;;;52.20;23.30;;;-1.50;92.70;;;;;;5052213;28;20032;-73
2021/04/26 01:29:34;;;;;;;47.40;20.52;;;-1.50;93.10;;;;;;5053574;28;20454;-74
2021/04/26 01:32:25;;;;;;;48.83;22.35;;;-1.50;93.00;;;;;;5052163;28;20055;-73
2021/04/26 01:34:52;;;;;;;54.63;23.20;;;-1.50;92.80;;;;;;5053568;28;20418;-73
2021/04/26 01:37:18;;;;;;;51.60;22.05;;;-1.60;92.30;;;;;;5055132;28;20414;-73
2021/04/26 01:39:45;;;;;;;49.35;22.27;;;-1.60;92.90;;;;;;5073427;28;20066;-74
2021/04/26 01:42:15;;;;;;;54.28;21.95;;;-1.60;94.00;;;;;;5071549;28;20028;-73
2021/04/26 01:44:41;;;;;;;57.20;22.77;;;-1.60;94.30;;;;;;5071996;28;20021;-74
2021/04/26 01:47:07;;;;;;;60.10;23.38;;;-1.70;94.90;;;;;;5071906;28;20021;-73
2021/04/26 01:49:34;;;;;;;57.95;22.15;;;-1.70;95.30;;;;;;5073331;28;20485;-74
2021/04/26 01:52:02;;;;;;;58.85;22.58;;;-1.70;95.60;;;;;;5072718;28;20497;-73
2021/04/26 01:54:28;;;;;;;56.38;23.25;;;-1.80;94.70;;;;;;5072514;28;20020;-73
2021/04/26 01:56:55;;;;;;;48.63;19.75;;;-1.80;96.70;;;;;;5071543;28;20021;-73
2021/04/26 01:59:21;;;;;;;48.63;19.52;;;-1.80;96.80;;;;;;5072849;28;20032;-73
2021/04/26 02:01:50;;;;;;;45.00;19.88;;;-1.80;96.20;;;;;;5073038;28;20023;-73
2021/04/26 02:04:16;;;;;;;78.22;30.42;;;-1.70;95.80;;;;;;5071645;28;20383;-74
2021/04/26 02:06:41;;;;;;;69.65;29.35;;;-1.70;96.20;;;;;;5071731;28;20115;-73
2021/04/26 02:09:07;;;;;;;64.25;25.67;;;-1.80;95.90;;;;;;5054807;28;20180;-74
2021/04/26 02:11:34;;;;;;;51.70;23.70;;;-1.80;96.10;;;;;;5051663;28;20032;-73
2021/04/26 02:14:00;;;;;;;52.53;22.55;;;-1.80;96.50;;;;;;5051441;28;20017;-73
2021/04/26 02:16:26;;;;;;;57.85;21.92;;;-1.80;96.90;;;;;;5052913;28;20033;-73
2021/04/26 02:18:52;;;;;;;50.40;24.15;;;-1.80;96.70;;;;;;5052699;28;20375;-74
2021/04/26 02:21:18;;;;;;;54.08;21.52;;;-1.90;95.40;;;;;;5051832;28;20024;-74
2021/04/26 02:23:44;;;;;;;41.20;19.02;;;-1.90;94.20;;;;;;5052627;28;20090;-73
2021/04/26 02:26:10;;;;;;;45.63;20.83;;;-2.00;93.50;;;;;;5051289;28;20021;-74
2021/04/26 02:28:35;;;;;;;49.17;20.92;;;-2.00;93.50;;;;;;5052710;28;20033;-73
2021/04/26 02:31:01;;;;;;;46.75;20.27;;;-2.00;94.10;;;;;;5052946;28;20021;-74
2021/04/26 02:33:42;;;;;;;54.83;21.50;;;-2.00;94.00;;;;;;5052779;28;20033;-73
2021/04/26 02:36:14;;;;;;;54.67;23.05;;;-2.10;95.00;;;;;;5060522;28;20028;-73
2021/04/26 02:38:47;;;;;;;128.60;47.65;;;-2.00;94.80;;;;;;5072678;28;20386;-73
2021/04/26 02:41:14;;;;;;;133.60;47.40;;;-2.00;95.00;;;;;;5071565;28;20117;-73
2021/04/26 02:43:51;;;;;;;127.80;45.90;;;-2.00;95.10;;;;;;5072682;28;20047;-73
2021/04/26 02:46:22;;;;;;;105.63;40.72;;;-2.00;95.20;;;;;;5072554;28;20121;-73
2021/04/26 02:48:50;;;;;;;103.68;40.17;;;-2.10;94.90;;;;;;5071445;28;20028;-73
2021/04/26 02:51:18;;;;;;;150.25;51.75;;;-2.10;95.20;;;;;;5072626;28;20056;-73
2021/04/26 02:53:44;;;;;;;130.10;48.15;;;-2.00;94.40;;;;;;5071361;28;20478;-73
2021/04/26 02:56:14;;;;;;;141.13;49.67;;;-2.10;94.00;;;;;;5071343;28;20028;-73
2021/04/26 02:58:43;;;;;;;137.43;50.25;;;-2.10;93.90;;;;;;5071394;28;20047;-73
2021/04/26 03:01:11;;;;;;;152.15;49.03;;;-2.10;93.50;;;;;;5072580;28;20061;-74
2021/04/26 03:03:39;;;;;;;135.77;46.70;;;-2.10;94.20;;;;;;5071315;28;20032;-74
2021/04/26 03:06:06;;;;;;;132.95;46.15;;;-2.10;94.70;;;;;;5066772;28;20017;-74
2021/04/26 03:08:34;;;;;;;115.95;43.88;;;-2.10;95.40;;;;;;5055379;28;20028;-74
2021/04/26 03:11:01;;;;;;;116.28;44.78;;;-2.20;95.40;;;;;;5056616;28;20013;-74
2021/04/26 03:13:28;;;;;;;131.73;44.30;;;-2.20;95.70;;;;;;5056584;28;20021;-73
2021/04/26 03:15:54;;;;;;;111.82;41.00;;;-2.20;95.60;;;;;;5056365;28;20025;-74
2021/04/26 03:18:20;;;;;;;75.63;30.05;;;-2.20;94.90;;;;;;5056337;28;20063;-74
2021/04/26 03:20:47;;;;;;;61.95;23.88;;;-2.30;94.50;;;;;;5056345;28;20521;-74
2021/04/26 03:23:23;;;;;;;66.00;24.05;;;-2.30;95.20;;;;;;5070126;28;20385;-74
2021/04/26 03:25:50;;;;;;;48.03;21.52;;;-2.30;96.20;;;;;;5076524;28;20043;-74
2021/04/26 03:28:18;;;;;;;45.75;21.65;;;-2.40;96.30;;;;;;5076009;28;20078;-74
2021/04/26 03:30:45;;;;;;;43.08;19.73;;;-2.40;96.20;;;;;;5076391;28;20048;-74
2021/04/26 03:33:12;;;;;;;51.72;21.92;;;-2.40;96.40;;;;;;5074763;28;20522;-74
2021/04/26 03:35:38;;;;;;;59.03;23.42;;;-2.30;96.70;;;;;;5076177;28;20474;-74
2021/04/26 03:38:04;;;;;;;89.63;36.20;;;-2.30;96.90;;;;;;5075864;28;20029;-74
2021/04/26 03:40:30;;;;;;;105.28;39.95;;;-2.20;97.20;;;;;;5074857;28;20028;-74
2021/04/26 03:42:58;;;;;;;128.43;50.05;;;-2.20;97.00;;;;;;5074539;28;20039;-74
2021/04/26 03:45:25;;;;;;;106.20;38.13;;;-2.20;96.80;;;;;;5075928;28;20474;-74
2021/04/26 03:47:52;;;;;;;102.35;38.50;;;-2.10;96.30;;;;;;5075582;28;20463;-74
2021/04/26 03:50:19;;;;;;;61.25;24.75;;;-2.10;95.90;;;;;;5057218;28;20056;-74
2021/04/26 03:52:45;;;;;;;45.15;20.25;;;-2.10;96.20;;;;;;5055850;28;20497;-74
2021/04/26 03:55:13;;;;;;;38.10;16.63;;;-2.10;96.10;;;;;;5055808;28;20025;-74
2021/04/26 03:57:39;;;;;;;33.20;16.50;;;-2.10;96.00;;;;;;5074257;28;20464;-74
2021/04/26 04:00:07;;;;;;;34.10;15.82;;;-2.10;95.40;;;;;;5054584;28;20060;-74
2021/04/26 04:02:33;;;;;;;35.95;16.08;;;-2.00;93.70;;;;;;5055439;28;20032;-74
2021/04/26 04:04:59;;;;;;;34.30;16.30;;;-1.90;93.40;;;;;;5054122;28;20029;-74
2021/04/26 04:07:28;;;;;;;40.08;17.02;;;-1.80;92.10;;;;;;5055535;28;20033;-74
2021/04/26 04:09:54;;;;;;;35.65;16.33;;;-1.60;91.00;;;;;;5055357;28;20072;-74
2021/04/26 04:12:21;;;;;;;38.90;17.63;;;-1.40;89.40;;;;;;5071894;28;20027;-74
2021/04/26 04:14:47;;;;;;;39.55;17.70;;;-1.10;88.00;;;;;;5073624;28;20039;-74
2021/04/26 04:17:13;;;;;;;46.80;19.67;;;-0.90;87.60;;;;;;5074171;28;20489;-75
2021/04/26 04:19:38;;;;;;;58.70;24.25;;;-0.80;87.10;;;;;;5074350;28;20021;-74
2021/04/26 04:22:04;;;;;;;82.43;33.00;;;-0.70;86.50;;;;;;5055318;28;20033;-73
2021/04/26 04:24:30;;;;;;;85.15;35.38;;;-0.70;86.20;;;;;;5053558;28;20478;-76
2021/04/26 04:26:56;;;;;;;66.57;30.67;;;-0.70;86.40;;;;;;5054029;28;20029;-74
2021/04/26 04:29:22;;;;;;;54.65;22.75;;;-0.70;86.20;;;;;;5055066;28;20051;-74
2021/04/26 04:31:48;;;;;;;46.83;20.40;;;-0.60;86.30;;;;;;5053632;28;20056;-73
2021/04/26 04:34:13;;;;;;;56.67;21.48;;;-0.60;86.40;;;;;;5055084;28;20483;-74
2021/04/26 04:36:39;;;;;;;40.40;19.58;;;-0.50;86.80;;;;;;5053456;28;20113;-73
2021/04/26 04:39:05;;;;;;;43.53;20.77;;;-0.40;85.80;;;;;;5067266;28;20032;-73
2021/04/26 04:41:31;;;;;;;60.10;23.48;;;-0.40;85.30;;;;;;5069908;28;20071;-74
2021/04/26 04:43:56;;;;;;;78.97;31.02;;;-0.30;85.50;;;;;;5062721;28;20070;-74
2021/04/26 04:46:22;;;;;;;75.68;30.75;;;-0.20;84.10;;;;;;5055217;28;20025;-75
2021/04/26 04:48:48;;;;;;;62.70;29.17;;;-0.20;83.60;;;;;;5051282;28;20095;-74
2021/04/26 04:51:13;;;;;;;59.90;27.45;;;-0.20;83.60;;;;;;5054102;28;20040;-74
2021/04/26 04:53:40;;;;;;;57.78;24.98;;;-0.10;83.80;;;;;;5054536;28;20052;-74
2021/04/26 04:56:05;;;;;;;65.20;24.75;;;0.00;83.30;;;;;;5054652;28;20025;-74
2021/04/26 04:58:31;;;;;;;56.65;24.38;;;0.10;83.90;;;;;;5054167;28;20101;-74
2021/04/26 05:00:57;;;;;;;49.08;20.02;;;0.30;84.00;;;;;;5054548;28;20025;-75
2021/04/26 05:03:22;;;;;;;34.75;17.95;;;0.30;82.90;;;;;;5057666;28;20020;-74
2021/04/26 05:05:48;;;;;;;46.85;18.08;;;0.30;82.90;;;;;;5072506;28;20480;-74
2021/04/26 05:08:14;;;;;;;23.48;12.73;;;0.40;83.50;;;;;;5072120;28;20017;-74
2021/04/26 05:10:39;;;;;;;28.52;14.60;;;0.50;79.90;;;;;;5074165;28;20103;-74
2021/04/26 05:13:05;;;;;;;39.20;17.05;;;0.60;79.90;;;;;;5072890;28;20025;-74
2021/04/26 05:15:31;;;;;;;29.33;12.82;;;0.70;79.20;;;;;;5074267;28;20021;-74
2021/04/26 05:17:57;;;;;;;33.50;16.55;;;0.80;77.80;;;;;;5073919;28;20041;-72
2021/04/26 05:20:23;;;;;;;33.22;16.83;;;0.80;80.00;;;;;;5072725;28;20027;-74
2021/04/26 05:22:49;;;;;;;41.72;17.10;;;0.80;79.50;;;;;;5073943;28;20060;-74
2021/04/26 05:25:15;;;;;;;40.28;16.92;;;0.90;79.00;;;;;;5074029;28;20474;-74
2021/04/26 05:27:41;;;;;;;38.95;17.92;;;0.90;78.10;;;;;;5072505;28;20113;-74
2021/04/26 05:30:09;;;;;;;36.13;17.35;;;0.90;78.00;;;;;;5071624;28;20470;-74
2021/04/26 05:32:35;;;;;;;38.78;18.02;;;0.90;79.10;;;;;;5072394;28;20023;-74
2021/04/26 05:35:01;;;;;;;39.20;18.55;;;1.00;78.60;;;;;;5073873;28;20016;-74
2021/04/26 05:37:27;;;;;;;40.20;18.02;;;1.10;77.70;;;;;;5073527;28;20086;-74
2021/04/26 05:39:52;;;;;;;50.20;20.90;;;1.30;77.10;;;;;;5068739;28;20032;-74
2021/04/26 05:42:18;;;;;;;50.55;21.80;;;1.40;77.00;;;;;;5059267;28;20025;-74
2021/04/26 05:44:44;;;;;;;50.70;22.52;;;1.70;77.70;;;;;;5060854;28;20416;-74
2021/04/26 05:47:10;;;;;;;130.90;46.90;;;1.80;76.70;;;;;;5057769;28;20104;-74
2021/04/26 05:49:36;;;;;;;51.72;22.30;;;2.10;72.90;;;;;;5053317;28;20104;-75
2021/04/26 05:52:01;;;;;;;34.08;13.90;;;2.30;67.50;;;;;;5051106;28;20516;-74
2021/04/26 05:54:27;;;;;;;16.02;6.82;;;2.50;64.40;;;;;;5057916;28;20048;-75
2021/04/26 05:56:52;;;;;;;13.05;6.10;;;2.40;58.90;;;;;;5063025;28;20031;-74
2021/04/26 05:59:18;;;;;;;10.20;6.30;;;2.60;57.10;;;;;;5062796;28;20112;-74
2021/04/26 06:01:44;;;;;;;14.45;6.05;;;2.70;57.40;;;;;;5070551;28;20021;-74
2021/04/26 06:04:09;;;;;;;12.02;5.65;;;2.90;55.90;;;;;;5072100;28;20477;-75
2021/04/26 06:06:35;;;;;;;12.02;7.03;;;2.90;55.80;;;;;;5071994;28;20051;-74
2021/04/26 06:09:01;;;;;;;12.02;5.85;;;3.00;55.40;;;;;;5073157;28;20043;-75
2021/04/26 06:11:27;;;;;;;12.80;5.65;;;3.00;55.20;;;;;;5071747;28;20032;-74
2021/04/26 06:13:52;;;;;;;9.70;5.47;;;2.90;53.50;;;;;;5072950;28;20500;-74
2021/04/26 06:16:18;;;;;;;10.00;4.72;;;3.00;53.60;;;;;;5073113;28;20505;-75
2021/04/26 06:18:44;;;;;;;9.95;5.40;;;3.00;53.40;;;;;;5070220;28;20040;-74
2021/04/26 06:21:10;;;;;;;11.02;5.38;;;2.90;52.80;;;;;;5062346;28;20028;-75
2021/04/26 06:23:35;;;;;;;7.18;5.10;;;2.90;52.90;;;;;;5060491;28;20421;-73
2021/04/26 06:26:01;;;;;;;11.55;4.70;;;3.00;53.80;;;;;;5063377;28;20024;-74
2021/04/26 06:28:27;;;;;;;10.00;5.53;;;2.90;52.70;;;;;;5061976;28;20032;-74
2021/04/26 06:30:53;;;;;;;7.32;5.55;;;2.90;53.30;;;;;;5061973;28;20417;-75
2021/04/26 06:33:19;;;;;;;8.98;4.20;;;3.10;53.10;;;;;;5062894;28;20484;-74
2021/04/26 06:35:54;;;;;;;8.85;4.95;;;3.10;52.80;;;;;;5056807;28;20021;-74
2021/04/26 06:38:21;;;;;;;10.98;5.28;;;3.00;51.40;;;;;;5052891;28;20033;-74
2021/04/26 06:40:47;;;;;;;7.40;5.13;;;2.90;51.80;;;;;;5052356;28;20017;-74
2021/04/26 06:43:14;;;;;;;10.38;5.63;;;2.90;52.10;;;;;;5055448;28;20021;-74
2021/04/26 06:45:41;;;;;;;10.55;4.80;;;3.10;53.00;;;;;;5069813;28;20028;-74
2021/04/26 06:48:07;;;;;;;8.02;4.47;;;3.30;53.10;;;;;;5072619;28;20032;-74
2021/04/26 06:50:33;;;;;;;22.23;9.30;;;3.40;51.20;;;;;;5071724;28;20462;-74
2021/04/26 06:52:59;;;;;;;11.95;6.28;;;3.60;51.80;;;;;;5064597;28;20035;-74
2021/04/26 06:55:25;;;;;;;9.18;4.97;;;4.00;52.60;;;;;;5052499;28;20386;-74
2021/04/26 06:57:52;;;;;;;11.23;5.68;;;3.90;50.90;;;;;;5050576;28;20059;-74
2021/04/26 07:00:18;;;;;;;10.43;5.47;;;4.30;50.80;;;;;;5048826;28;20021;-73
2021/04/26 07:02:44;;;;;;;7.63;4.35;;;4.40;50.10;;;;;;5065894;28;20077;-75
2021/04/26 07:05:10;;;;;;;8.95;4.22;;;4.60;50.20;;;;;;5069288;28;20024;-76
2021/04/26 07:07:36;;;;;;;4.75;3.45;;;4.60;47.70;;;;;;5071169;28;20095;-74
2021/04/26 07:10:06;;;;;;;5.05;2.67;;;4.70;47.50;;;;;;5070220;28;20082;-74
2021/04/26 07:12:32;;;;;;;8.00;3.35;;;4.60;45.70;;;;;;5071956;28;20056;-74
2021/04/26 07:14:57;;;;;;;4.90;2.92;;;4.80;45.60;;;;;;5070495;28;20056;-75
2021/04/26 07:17:23;;;;;;;6.47;3.67;;;4.80;44.70;;;;;;5071694;28;20112;-74
2021/04/26 07:19:50;;;;;;;3.53;2.35;;;4.90;45.60;;;;;;5070343;28;20021;-74
2021/04/26 07:22:16;;;;;;;5.00;2.58;;;5.00;44.60;;;;;;5070100;28;20031;-72
2021/04/26 07:24:41;;;;;;;3.20;2.03;;;4.90;44.30;;;;;;5070806;28;20103;-76
2021/04/26 07:27:07;;;;;;;7.57;2.15;;;5.00;42.40;;;;;;5071514;28;20078;-74
2021/04/26 07:29:33;;;;;;;3.80;3.03;;;4.80;42.00;;;;;;5071688;28;20028;-74
2021/04/26 07:31:59;;;;;;;3.00;1.73;;;4.80;41.80;;;;;;5068963;28;20346;-74
2021/04/26 07:34:24;;;;;;;1.70;1.60;;;4.70;41.30;;;;;;5070221;28;20032;-75
2021/04/26 07:36:50;;;;;;;2.58;1.20;;;4.70;41.60;;;;;;5071374;28;20035;-74
2021/04/26 07:39:16;;;;;;;2.63;2.08;;;4.50;40.70;;;;;;5070115;28;20075;-74
2021/04/26 07:41:41;;;;;;;2.97;1.50;;;4.80;41.20;;;;;;5070228;28;20508;-74
2021/04/26 07:44:07;;;;;;;2.25;1.70;;;5.10;41.40;;;;;;5078533;28;20055;-74
2021/04/26 07:46:33;;;;;;;2.97;1.80;;;4.90;40.30;;;;;;5070675;28;20031;-74
2021/04/26 07:48:59;;;;;;;1.88;1.67;;;5.10;40.00;;;;;;5071109;28;20025;-74
2021/04/26 07:51:24;;;;;;;2.60;1.55;;;5.30;40.10;;;;;;5070802;28;20025;-74
2021/04/26 07:53:50;;;;;;;2.10;1.55;;;5.50;41.20;;;;;;5074610;28;20040;-73
2021/04/26 07:56:16;;;;;;;5.25;1.88;;;5.40;39.70;;;;;;5075757;28;20028;-74
2021/04/26 07:58:42;;;;;;;26.08;14.45;;;5.80;39.60;;;;;;5074547;28;20040;-74
2021/04/26 08:01:07;;;;;;;2.38;1.85;;;6.10;39.60;;;;;;5075562;28;20017;-74
2021/04/26 08:03:33;;;;;;;3.03;1.92;;;6.00;38.50;;;;;;5074705;28;20020;-75
2021/04/26 08:05:59;;;;;;;20.55;11.07;;;6.10;38.50;;;;;;5074209;28;20032;-74
2021/04/26 08:08:25;;;;;;;4.82;2.08;;;6.40;38.60;;;;;;5074350;28;20523;-74
2021/04/26 08:10:50;;;;;;;1.80;1.45;;;6.40;38.00;;;;;;5075483;28;20021;-75
2021/04/26 08:13:16;;;;;;;3.60;1.90;;;6.50;37.30;;;;;;5075286;28;20115;-74
2021/04/26 08:15:42;;;;;;;2.40;1.70;;;6.40;36.90;;;;;;5074152;28;20044;-74
2021/04/26 08:18:08;;;;;;;12.40;5.82;;;6.60;37.10;;;;;;5075182;28;20068;-74
2021/04/26 08:20:35;;;;;;;2.83;1.65;;;6.70;37.20;;;;;;5075230;28;20048;-74
2021/04/26 08:23:02;;;;;;;2.40;2.13;;;6.50;36.70;;;;;;5075132;28;20043;-74
2021/04/26 08:25:28;;;;;;;1.77;1.58;;;6.70;37.00;;;;;;5073511;28;20047;-74
2021/04/26 08:27:56;;;;;;;43.38;18.65;;;6.50;36.10;;;;;;5074859;28;20558;-74
2021/04/26 08:30:22;;;;;;;18.80;7.75;;;6.70;35.70;;;;;;5075097;28;20103;-74
2021/04/26 08:32:48;;;;;;;2.28;1.52;;;6.70;35.00;;;;;;5073644;28;20445;-74
2021/04/26 08:35:14;;;;;;;3.75;2.05;;;6.70;34.60;;;;;;5073742;28;20052;-74
2021/04/26 08:37:40;;;;;;;2.20;1.30;;;6.70;34.60;;;;;;5073607;28;20036;-74
2021/04/26 08:40:07;;;;;;;1.70;1.48;;;6.60;34.00;;;;;;5073686;28;20089;-74
2021/04/26 08:42:33;;;;;;;4.15;2.35;;;6.70;34.00;;;;;;5073720;28;20409;-75
2021/04/26 08:44:58;;;;;;;4.28;3.00;;;7.00;34.10;;;;;;5074689;28;20016;-75
2021/04/26 08:47:25;;;;;;;4.85;2.17;;;7.10;33.90;;;;;;5074660;28;20150;-74
2021/04/26 08:49:55;;;;;;;3.20;2.78;;;7.50;34.50;;;;;;5073568;28;20500;-75
2021/04/26 08:52:21;;;;;;;3.72;1.70;;;7.70;34.30;;;;;;5073306;28;20529;-74
2021/04/26 08:54:47;;;;;;;2.53;1.50;;;7.80;33.90;;;;;;5073362;28;20028;-74
2021/04/26 08:57:12;;;;;;;2.83;1.80;;;7.60;33.90;;;;;;5073126;28;20043;-75
2021/04/26 08:59:42;;;;;;;3.00;1.85;;;7.70;33.80;;;;;;5073238;28;20028;-75
2021/04/26 09:02:08;;;;;;;3.38;1.45;;;7.60;33.50;;;;;;5074434;28;20031;-74
2021/04/26 09:04:35;;;;;;;1.65;1.42;;;7.40;32.50;;;;;;5074185;28;20021;-74
2021/04/26 09:07:04;;;;;;;4.22;1.60;;;7.50;31.60;;;;;;5074229;28;20067;-75
2021/04/26 09:09:36;;;;;;;4.20;1.60;;;7.30;30.60;;;;;;5072993;28;20024;-74
2021/04/26 09:12:02;;;;;;;7.45;2.95;;;7.50;30.60;;;;;;5072917;28;20493;-74
2021/04/26 09:14:47;;;;;;;3.10;2.05;;;7.70;31.80;;;;;;5073034;28;20021;-74
2021/04/26 09:17:26;;;;;;;4.63;2.30;;;7.70;32.10;;;;;;5073977;28;20036;-75
2021/04/26 09:19:57;;;;;;;6.18;1.85;;;7.90;32.60;;;;;;5073877;28;20040;-75
2021/04/26 09:22:45;;;;;;;1.73;1.60;;;8.00;31.90;;;;;;5072645;28;20532;-74
2021/04/26 09:25:26;;;;;;;2.35;1.70;;;7.80;31.70;;;;;;5073860;28;20104;-74
2021/04/26 09:27:59;;;;;;;3.63;1.80;;;7.90;32.00;;;;;;5072709;28;20020;-74
2021/04/26 09:30:52;;;;;;;12.75;6.32;;;8.10;32.10;;;;;;5072935;28;20028;-74
2021/04/26 09:33:40;;;;;;;4.53;2.63;;;8.20;33.10;;;;;;5072735;28;20492;-75
2021/04/26 09:36:31;;;;;;;2.03;1.77;;;8.30;32.60;;;;;;5073879;28;20425;-74
2021/04/26 09:38:57;;;;;;;2.65;1.90;;;8.10;32.30;;;;;;5073605;28;20558;-74
2021/04/26 09:41:24;;;;;;;4.47;2.97;;;7.80;30.60;;;;;;5073523;28;20024;-75
2021/04/26 09:43:51;;;;;;;8.13;3.80;;;8.10;31.30;;;;;;5073814;28;20028;-74
2021/04/26 09:46:19;;;;;;;9.18;4.88;;;8.10;31.80;;;;;;5073781;28;20017;-74
2021/04/26 09:48:45;;;;;;;2.78;2.50;;;8.30;32.10;;;;;;5072308;28;20619;-75
2021/04/26 09:51:20;;;;;;;5.28;3.35;;;8.40;32.50;;;;;;5073545;28;20039;-76
2021/04/26 09:53:52;;;;;;;2.13;1.70;;;8.10;32.10;;;;;;5073620;28;20613;-74
2021/04/26 09:56:33;;;;;;;1.98;1.67;;;8.10;32.10;;;;;;5072285;28;20077;-74
2021/04/26 09:59:00;;;;;;;3.47;1.30;;;7.90;31.80;;;;;;5073553;28;20040;-74
2021/04/26 10:01:27;;;;;;;2.88;2.58;;;7.60;31.70;;;;;;5073791;28;20016;-75
2021/04/26 10:03:53;;;;;;;2.10;1.65;;;7.70;32.10;;;;;;5073344;28;20104;-74
2021/04/26 10:06:20;;;;;;;3.25;2.30;;;7.60;32.10;;;;;;5071799;28;20504;-75
2021/04/26 10:08:47;;;;;;;3.38;1.88;;;7.20;32.00;;;;;;5073355;28;20382;-74
2021/04/26 10:11:13;;;;;;;4.25;1.95;;;7.00;32.30;;;;;;5073377;28;20104;-74
2021/04/26 10:13:40;;;;;;;2.65;2.10;;;6.90;32.60;;;;;;5071820;28;20174;-74
2021/04/26 10:16:10;;;;;;;2.72;1.63;;;7.40;33.40;;;;;;5071291;28;20059;-75
2021/04/26 10:18:41;;;;;;;1.55;1.45;;;7.70;33.50;;;;;;5072014;28;20113;-74
2021/04/26 10:21:19;;;;;;;2.97;1.80;;;7.70;32.90;;;;;;5071845;28;20482;-75
2021/04/26 10:23:49;;;;;;;2.25;1.52;;;7.90;32.80;;;;;;5073070;28;20489;-74
2021/04/26 10:26:42;;;;;;;3.13;1.70;;;8.00;32.60;;;;;;5072919;28;20024;-74
2021/04/26 10:29:17;;;;;;;3.60;1.40;;;7.60;32.40;;;;;;5072947;28;20021;-74
2021/04/26 10:32:13;;;;;;;5.03;1.95;;;7.30;32.80;;;;;;5071651;28;20059;-74
2021/04/26 10:34:41;;;;;;;2.03;1.55;;;7.50;33.50;;;;;;5072040;28;20036;-75
2021/04/26 10:37:16;;;;;;;4.95;3.15;;;7.20;32.60;;;;;;5071393;28;20470;-74
2021/04/26 10:39:57;;;;;;;4.93;1.95;;;7.30;32.90;;;;;;5072953;28;20028;-74
2021/04/26 10:42:31;;;;;;;2.00;1.60;;;6.90;32.40;;;;;;5071507;28;20470;-74
2021/04/26 10:44:57;;;;;;;4.43;1.45;;;6.70;32.10;;;;;;5072634;28;20028;-74
2021/04/26 10:47:24;;;;;;;2.75;1.20;;;7.10;31.70;;;;;;5071278;28;20023;-74
2021/04/26 10:50:16;;;;;;;1.92;1.30;;;7.00;31.30;;;;;;5071236;28;20460;-75
2021/04/26 10:52:46;;;;;;;2.58;1.50;;;7.20;30.90;;;;;;5068390;28;20033;-74
2021/04/26 10:55:32;;;;;;;2.60;1.80;;;7.20;30.80;;;;;;5071261;28;20025;-74
2021/04/26 10:58:03;;;;;;;3.17;2.50;;;7.80;32.10;;;;;;5071032;28;20068;-74
2021/04/26 11:00:35;;;;;;;2.75;1.30;;;8.30;33.00;;;;;;5072780;28;20077;-74
2021/04/26 11:03:00;;;;;;;5.05;2.58;;;8.50;33.40;;;;;;5072564;28;20032;-74
2021/04/26 11:05:39;;;;;;;3.97;2.15;;;7.80;31.90;;;;;;5072563;28;20101;-75
2021/04/26 11:08:11;;;;;;;3.15;1.30;;;7.40;31.80;;;;;;5072447;28;20431;-74
2021/04/26 11:10:50;;;;;;;5.53;2.28;;;7.00;32.00;;;;;;5071698;28;20060;-74
2021/04/26 11:13:31;;;;;;;1.50;1.42;;;7.30;32.80;;;;;;5071295;28;20029;-74
2021/04/26 11:16:06;;;;;;;2.50;2.15;;;7.30;32.70;;;;;;5071161;28;20055;-74
2021/04/26 11:18:34;;;;;;;4.72;3.33;;;7.70;33.00;;;;;;5070970;28;20060;-74
2021/04/26 11:21:00;;;;;;;2.50;1.95;;;8.10;32.80;;;;;;5071322;28;20013;-74
2021/04/26 11:23:49;;;;;;;3.00;2.08;;;8.60;33.50;;;;;;5072277;28;20029;-74
2021/04/26 11:26:21;;;;;;;9.48;4.03;;;8.50;32.40;;;;;;5062581;28;20017;-75
2021/04/26 11:29:04;;;;;;;24.77;15.48;;;8.80;32.30;;;;;;5054909;28;20397;-74
2021/04/26 11:31:42;;;;;;;9.40;6.50;;;9.00;31.80;;;;;;5055186;28;20033;-74
2021/04/26 11:34:20;;;;;;;15.52;5.72;;;8.80;31.50;;;;;;5054975;28;20033;-75
2021/04/26 11:37:00;;;;;;;4.45;1.98;;;8.90;32.00;;;;;;5056017;28;20032;-74
2021/04/26 11:39:37;;;;;;;3.38;2.08;;;8.70;30.90;;;;;;5056136;28;20029;-75
2021/04/26 11:42:04;;;;;;;3.10;1.70;;;8.20;30.40;;;;;;5056358;28;20128;-75
2021/04/26 11:44:32;;;;;;;4.05;1.85;;;7.80;30.20;;;;;;5054885;28;20025;-75
2021/04/26 11:47:02;;;;;;;2.63;1.92;;;7.50;30.30;;;;;;5054556;28;20398;-74
2021/04/26 11:49:28;;;;;;;1.83;1.45;;;7.60;30.90;;;;;;5056037;28;20021;-74
2021/04/26 11:51:54;;;;;;;1.90;1.30;;;7.30;31.10;;;;;;5055587;28;20021;-74
2021/04/26 11:54:25;;;;;;;5.03;1.50;;;7.40;31.60;;;;;;5054713;28;20022;-75
2021/04/26 11:57:16;;;;;;;2.80;1.35;;;7.30;31.50;;;;;;5055893;28;20387;-74
2021/04/26 11:59:48;;;;;;;2.97;1.50;;;7.10;31.20;;;;;;5056353;28;20079;-74
2021/04/26 12:02:26;;;;;;;2.90;1.60;;;7.20;31.40;;;;;;5055628;28;20040;-74
2021/04/26 12:04:52;;;;;;;4.15;1.52;;;7.30;31.30;;;;;;5054502;28;20021;-74
2021/04/26 12:07:18;;;;;;;4.40;2.38;;;7.60;31.80;;;;;;5055478;28;20068;-74
2021/04/26 12:09:46;;;;;;;11.88;4.28;;;7.80;32.30;;;;;;5055590;28;20060;-76
2021/04/26 12:12:15;;;;;;;4.05;1.65;;;7.90;32.10;;;;;;5055341;28;20087;-74
2021/04/26 12:14:44;;;;;;;1.83;1.50;;;7.80;31.70;;;;;;5055435;28;20047;-74
2021/04/26 12:17:24;;;;;;;4.60;1.80;;;7.90;31.30;;;;;;5055221;28;20433;-74
2021/04/26 12:19:50;;;;;;;4.20;1.90;;;7.70;31.40;;;;;;5054389;28;20048;-74
2021/04/26 12:22:19;;;;;;;2.17;1.40;;;7.50;31.60;;;;;;5053854;28;20029;-74
2021/04/26 12:24:45;;;;;;;5.60;2.00;;;7.50;31.90;;;;;;5058407;28;20020;-74
2021/04/26 12:27:14;;;;;;;2.05;1.70;;;7.50;31.80;;;;;;5074315;28;20036;-74
2021/04/26 12:29:40;;;;;;;3.58;1.75;;;7.60;31.80;;;;;;5072004;28;20048;-74
2021/04/26 12:32:25;;;;;;;1.75;1.30;;;7.90;32.30;;;;;;5074556;28;20056;-74
2021/04/26 12:35:10;;;;;;;2.78;1.60;;;7.80;32.50;;;;;;5073634;28;20066;-74
2021/04/26 12:37:41;;;;;;;6.65;1.45;;;7.70;32.30;;;;;;5072971;28;20055;-74
2021/04/26 12:40:29;;;;;;;5.35;2.05;;;7.60;32.00;;;;;;5066293;28;20047;-74
2021/04/26 12:42:57;;;;;;;3.65;1.65;;;7.60;32.40;;;;;;5070179;28;20078;-75
2021/04/26 12:45:35;;;;;;;3.78;2.42;;;7.70;32.70;;;;;;5072704;28;20024;-74
2021/04/26 12:48:09;;;;;;;4.05;2.40;;;7.90;33.30;;;;;;5075329;28;20044;-73
2021/04/26 12:50:38;;;;;;;2.67;2.05;;;7.90;33.20;;;;;;5073518;28;20043;-75